Главная страница
METAR-TAF:

METAR-TAF

Аэропорты :

Шуанлю

Чэнду, Китай

широта: 30-40N, долгота: 104-01E, высота над уровнем моря: 508 м

Текущие метеонаблюдения

Эта сводка был подготовлена 22 минут назад, в 10:00 UTC
Ветер 2 Узел переменных направлений
Температура 29°C
Влажность 79%
Давление 1004 hPa
Видимость 10 км и более
небольшая облачность на высоте 2600 фута

METAR: ZUUU 161000Z VRB01MPS 9999 FEW026 29/25 Q1004 NOSIG

Время: 18:22 (10:22 UTC)

Прогноз

Эта сводка был подготовлена 8 часа и 16 минут назад, в 02:06 UTC
Прогноз действительный с 16-го 06 UTC до 17-го 06 UTC
Ветер 6 Узел от северо-северо-восточный
Видимость: 5000 м
небольшая облачность на высоте 3000 фута, Кучево-дождевые.
Отдельные облака на высоте 3000 фута
небольшие ливневые дожди, дымка
временами
С 16-го 14 UTC до 16-го 18 UTC
гроза, дождь

TAF: ZUUU 160206Z 1606/1706 02003MPS 5000 -SHRA BR FEW030CB SCT030 TX29/1607Z TN23/1623Z TEMPO 1614/1618 TSRA

Метеонаблюдения и прогнозы для более 4000 аэропортов (сводки METAR и TAF).

Имеющиеся станции представлены на карте желтыми и красными точками.

Чтобы увидеть название станции, наведите на нее мышь.

Затем щелкните, чтобы увидеть метеонаблюдения и метеопрогнозы.

Управление картой: чтобы увеличить масштаб, щелкните зеленые кнопки с черным крестиком; чтобы уменьшить масштаб, щелкните зеленую кнопку с тире; для просмотра соседних карт щелкайте зеленые стрелки.


METAR-TAF: